Archival Weather

Chicago O'Hare International

Chicago, Illinois (KORD)

Report from: Friday, March 30, 2012 10:51 AM CDT
Current time: Monday, March 4, 2024 7:32 PM CST

Current weather – Weather history – Daily summaries
Weather forecast

Present weatherHaze
Temperature10.6°C (51.1°F)
Dew point7.2°C (45.0°F)
Winds 7 kts (3.6 m/s, 8.1 mph) Northeast (50°)
Visibility6 mi. (9.7 km)
Clouds Ceiling: Broken clouds 1,300 ft. (396 m)
Overcast 2,500 ft. (762 m)
Altimeter29.74 in.Hg (1007 mB)
Relative humidity79 %
Density altitude-177 ft. (-54 m)
Sea-level pressure100.7 kPa (1007 mB, 29.75 in.Hg)
Remarks Automated weather observing station with precipitation discriminator
Flight conditions Marginal Visual Meteorological Conditions
Raw data2012-03-30 15:51 KORD 301551Z 05007KT 6SM HZ BKN013 OVC025 11/07 A2974 RMK AO2 SLP073 T01060072
An error has occurred. This application may no longer respond until reloaded. Reload 🗙